Check, Virginia
Current Conditions -  °F | °C
As of 3:35 AM on Friday 28 Nov 2014 (Local Time) from KBCB Reporting Station
Overcast Overcast  
Wind Chill: 18°   Ceiling: 4700
Heat Index: 28°   Visibility: 10mi
Dew Point: 21°   Wind: 12mph
Humidity: 74%   Direction: 310°NW
Pressure: 30.24"   Gusts: 20mph
Location:  37.03°N, 80.21°W
Report Text: KBCB 280835Z AUTO 31010G17KT 10SM OVC047 M02/M06 A3024 RMK AO2
Loading
Personal Weather Stations






























Interactive Weather Map New forecast layout! Learn more

10-Day Weather Forecast

Advertisements
Track Severe Weather on mobile